sensor_id;sensor_type;location;lat;lon;timestamp;P1;durP1;ratioP1;P2;durP2;ratioP2
59972;SDS011;55298;-36.624;-64.282;2022-08-01T00:00:28;14.18;;;12.77;;
59972;SDS011;55298;-36.624;-64.282;2022-08-01T00:02:56;15.10;;;12.13;;
59972;SDS011;55298;-36.624;-64.282;2022-08-01T00:05:27;14.63;;;12.98;;
59972;SDS011;55298;-36.624;-64.282;2022-08-01T00:07:57;14.27;;;11.80;;
59972;SDS011;55298;-36.624;-64.282;2022-08-01T00:10:25;13.48;;;11.68;;
59972;SDS011;55298;-36.624;-64.282;2022-08-01T00:12:54;14.65;;;12.18;;
59972;SDS011;55298;-36.624;-64.282;2022-08-01T00:15:22;13.70;;;12.38;;
59972;SDS011;55298;-36.624;-64.282;2022-08-01T00:17:51;12.82;;;11.32;;
59972;SDS011;55298;-36.624;-64.282;2022-08-01T00:20:19;16.70;;;12.25;;
59972;SDS011;55298;-36.624;-64.282;2022-08-01T00:22:48;15.70;;;14.05;;
59972;SDS011;55298;-36.624;-64.282;2022-08-01T00:25:18;17.05;;;13.10;;
59972;SDS011;55298;-36.624;-64.282;2022-08-01T00:27:46;17.80;;;14.50;;
59972;SDS011;55298;-36.624;-64.282;2022-08-01T00:30:14;13.10;;;11.70;;
59972;SDS011;55298;-36.624;-64.282;2022-08-01T00:32:42;12.77;;;11.27;;
59972;SDS011;55298;-36.624;-64.282;2022-08-01T00:35:11;13.52;;;12.23;;
59972;SDS011;55298;-36.624;-64.282;2022-08-01T00:37:40;12.77;;;11.48;;
59972;SDS011;55298;-36.624;-64.282;2022-08-01T00:40:09;16.90;;;13.15;;
59972;SDS011;55298;-36.624;-64.282;2022-08-01T00:42:38;14.88;;;11.90;;
59972;SDS011;55298;-36.624;-64.282;2022-08-01T00:45:07;11.43;;;10.30;;
59972;SDS011;55298;-36.624;-64.282;2022-08-01T00:47:38;15.10;;;11.55;;
59972;SDS011;55298;-36.624;-64.282;2022-08-01T00:50:08;13.68;;;12.25;;
59972;SDS011;55298;-36.624;-64.282;2022-08-01T00:52:37;13.57;;;12.02;;
59972;SDS011;55298;-36.624;-64.282;2022-08-01T00:55:08;12.00;;;10.75;;
59972;SDS011;55298;-36.624;-64.282;2022-08-01T00:57:38;16.10;;;13.52;;
59972;SDS011;55298;-36.624;-64.282;2022-08-01T01:00:08;11.63;;;10.52;;
59972;SDS011;55298;-36.624;-64.282;2022-08-01T01:02:37;13.32;;;11.05;;
59972;SDS011;55298;-36.624;-64.282;2022-08-01T01:05:09;11.93;;;10.63;;
59972;SDS011;55298;-36.624;-64.282;2022-08-01T01:07:40;14.77;;;13.05;;
59972;SDS011;55298;-36.624;-64.282;2022-08-01T01:10:31;14.93;;;13.40;;
59972;SDS011;55298;-36.624;-64.282;2022-08-01T01:13:23;13.52;;;12.00;;
59972;SDS011;55298;-36.624;-64.282;2022-08-01T01:16:06;14.15;;;12.68;;
59972;SDS011;55298;-36.624;-64.282;2022-08-01T01:18:38;15.45;;;12.05;;
59972;SDS011;55298;-36.624;-64.282;2022-08-01T01:21:26;20.45;;;15.10;;
59972;SDS011;55298;-36.624;-64.282;2022-08-01T01:24:19;18.63;;;15.40;;
59972;SDS011;55298;-36.624;-64.282;2022-08-01T01:30:03;14.10;;;12.60;;
59972;SDS011;55298;-36.624;-64.282;2022-08-01T01:32:36;16.35;;;12.73;;
59972;SDS011;55298;-36.624;-64.282;2022-08-01T01:35:10;14.98;;;10.75;;
59972;SDS011;55298;-36.624;-64.282;2022-08-01T01:37:44;11.20;;;10.10;;
59972;SDS011;55298;-36.624;-64.282;2022-08-01T01:40:16;13.15;;;11.85;;
59972;SDS011;55298;-36.624;-64.282;2022-08-01T01:42:47;15.93;;;11.65;;
59972;SDS011;55298;-36.624;-64.282;2022-08-01T01:45:18;15.68;;;14.18;;
59972;SDS011;55298;-36.624;-64.282;2022-08-01T01:47:47;12.10;;;10.80;;
59972;SDS011;55298;-36.624;-64.282;2022-08-01T01:50:20;11.70;;;10.60;;
59972;SDS011;55298;-36.624;-64.282;2022-08-01T01:52:52;15.77;;;12.50;;
59972;SDS011;55298;-36.624;-64.282;2022-08-01T01:55:21;15.57;;;14.00;;
59972;SDS011;55298;-36.624;-64.282;2022-08-01T01:57:53;15.55;;;12.98;;
59972;SDS011;55298;-36.624;-64.282;2022-08-01T02:00:24;17.65;;;13.15;;
59972;SDS011;55298;-36.624;-64.282;2022-08-01T02:02:54;14.82;;;12.93;;
59972;SDS011;55298;-36.624;-64.282;2022-08-01T02:05:25;13.63;;;12.40;;
59972;SDS011;55298;-36.624;-64.282;2022-08-01T02:07:54;15.90;;;14.27;;
59972;SDS011;55298;-36.624;-64.282;2022-08-01T02:10:23;23.30;;;21.02;;
59972;SDS011;55298;-36.624;-64.282;2022-08-01T02:12:52;18.80;;;16.10;;
59972;SDS011;55298;-36.624;-64.282;2022-08-01T02:15:22;18.77;;;17.00;;
59972;SDS011;55298;-36.624;-64.282;2022-08-01T02:17:52;17.85;;;16.15;;
59972;SDS011;55298;-36.624;-64.282;2022-08-01T02:20:24;18.92;;;16.88;;
59972;SDS011;55298;-36.624;-64.282;2022-08-01T02:23:08;18.70;;;16.00;;
59972;SDS011;55298;-36.624;-64.282;2022-08-01T02:25:44;27.35;;;24.75;;
59972;SDS011;55298;-36.624;-64.282;2022-08-01T02:28:17;20.90;;;18.67;;
59972;SDS011;55298;-36.624;-64.282;2022-08-01T02:30:54;18.73;;;16.92;;
59972;SDS011;55298;-36.624;-64.282;2022-08-01T02:33:45;19.33;;;17.40;;
59972;SDS011;55298;-36.624;-64.282;2022-08-01T02:36:20;16.00;;;14.40;;
59972;SDS011;55298;-36.624;-64.282;2022-08-01T02:38:52;18.88;;;16.33;;
59972;SDS011;55298;-36.624;-64.282;2022-08-01T02:41:23;15.95;;;14.32;;
59972;SDS011;55298;-36.624;-64.282;2022-08-01T02:43:56;25.40;;;20.25;;
59972;SDS011;55298;-36.624;-64.282;2022-08-01T02:46:35;19.02;;;16.88;;
59972;SDS011;55298;-36.624;-64.282;2022-08-01T02:49:10;13.30;;;12.00;;
59972;SDS011;55298;-36.624;-64.282;2022-08-01T02:51:39;12.45;;;11.15;;
59972;SDS011;55298;-36.624;-64.282;2022-08-01T02:54:11;18.33;;;16.10;;
59972;SDS011;55298;-36.624;-64.282;2022-08-01T02:56:41;14.23;;;11.05;;
59972;SDS011;55298;-36.624;-64.282;2022-08-01T02:59:12;18.67;;;13.88;;
59972;SDS011;55298;-36.624;-64.282;2022-08-01T03:01:44;15.25;;;13.23;;
59972;SDS011;55298;-36.624;-64.282;2022-08-01T03:04:14;13.98;;;12.30;;
59972;SDS011;55298;-36.624;-64.282;2022-08-01T03:06:45;19.35;;;16.05;;
59972;SDS011;55298;-36.624;-64.282;2022-08-01T03:09:14;28.33;;;20.90;;
59972;SDS011;55298;-36.624;-64.282;2022-08-01T03:11:45;17.38;;;15.65;;
59972;SDS011;55298;-36.624;-64.282;2022-08-01T03:14:16;25.40;;;19.45;;
59972;SDS011;55298;-36.624;-64.282;2022-08-01T03:16:46;16.65;;;14.95;;
59972;SDS011;55298;-36.624;-64.282;2022-08-01T03:19:17;17.48;;;15.32;;
59972;SDS011;55298;-36.624;-64.282;2022-08-01T03:21:47;20.38;;;17.48;;
59972;SDS011;55298;-36.624;-64.282;2022-08-01T03:24:17;16.23;;;14.05;;
59972;SDS011;55298;-36.624;-64.282;2022-08-01T03:26:49;16.05;;;12.68;;
59972;SDS011;55298;-36.624;-64.282;2022-08-01T03:29:21;15.07;;;13.50;;
59972;SDS011;55298;-36.624;-64.282;2022-08-01T03:31:52;13.40;;;10.98;;
59972;SDS011;55298;-36.624;-64.282;2022-08-01T03:34:21;14.88;;;12.73;;
59972;SDS011;55298;-36.624;-64.282;2022-08-01T03:37:19;14.48;;;10.30;;
59972;SDS011;55298;-36.624;-64.282;2022-08-01T03:39:49;12.70;;;10.80;;
59972;SDS011;55298;-36.624;-64.282;2022-08-01T03:42:23;15.50;;;13.00;;
59972;SDS011;55298;-36.624;-64.282;2022-08-01T03:44:59;17.27;;;14.95;;
59972;SDS011;55298;-36.624;-64.282;2022-08-01T03:47:36;20.50;;;14.77;;
59972;SDS011;55298;-36.624;-64.282;2022-08-01T03:50:05;16.88;;;15.10;;
59972;SDS011;55298;-36.624;-64.282;2022-08-01T03:52:34;21.65;;;16.17;;
59972;SDS011;55298;-36.624;-64.282;2022-08-01T03:57:37;16.45;;;13.85;;
59972;SDS011;55298;-36.624;-64.282;2022-08-01T04:00:06;13.85;;;12.05;;
59972;SDS011;55298;-36.624;-64.282;2022-08-01T04:02:35;27.38;;;16.40;;
59972;SDS011;55298;-36.624;-64.282;2022-08-01T04:05:04;18.02;;;13.02;;
59972;SDS011;55298;-36.624;-64.282;2022-08-01T04:07:34;19.42;;;12.95;;
59972;SDS011;55298;-36.624;-64.282;2022-08-01T04:10:02;16.65;;;13.73;;
59972;SDS011;55298;-36.624;-64.282;2022-08-01T04:12:31;21.35;;;13.02;;
59972;SDS011;55298;-36.624;-64.282;2022-08-01T04:15:00;16.25;;;12.48;;
59972;SDS011;55298;-36.624;-64.282;2022-08-01T04:17:30;18.40;;;12.50;;
59972;SDS011;55298;-36.624;-64.282;2022-08-01T04:19:58;21.48;;;14.48;;
59972;SDS011;55298;-36.624;-64.282;2022-08-01T04:22:27;23.05;;;14.15;;
59972;SDS011;55298;-36.624;-64.282;2022-08-01T04:24:57;17.80;;;12.65;;
59972;SDS011;55298;-36.624;-64.282;2022-08-01T04:27:29;16.75;;;13.23;;
59972;SDS011;55298;-36.624;-64.282;2022-08-01T04:30:04;19.65;;;15.20;;
59972;SDS011;55298;-36.624;-64.282;2022-08-01T04:32:37;17.88;;;13.52;;
59972;SDS011;55298;-36.624;-64.282;2022-08-01T04:35:07;18.45;;;13.65;;
59972;SDS011;55298;-36.624;-64.282;2022-08-01T04:37:40;16.02;;;13.15;;
59972;SDS011;55298;-36.624;-64.282;2022-08-01T04:40:11;14.90;;;12.55;;
59972;SDS011;55298;-36.624;-64.282;2022-08-01T04:42:39;15.95;;;12.23;;
59972;SDS011;55298;-36.624;-64.282;2022-08-01T04:45:08;16.50;;;12.60;;
59972;SDS011;55298;-36.624;-64.282;2022-08-01T04:47:38;14.63;;;11.68;;
59972;SDS011;55298;-36.624;-64.282;2022-08-01T04:50:09;22.30;;;14.32;;
59972;SDS011;55298;-36.624;-64.282;2022-08-01T04:52:39;13.00;;;11.63;;
59972;SDS011;55298;-36.624;-64.282;2022-08-01T04:55:08;15.88;;;14.00;;
59972;SDS011;55298;-36.624;-64.282;2022-08-01T04:57:38;22.27;;;15.07;;
59972;SDS011;55298;-36.624;-64.282;2022-08-01T05:00:10;18.35;;;14.00;;
59972;SDS011;55298;-36.624;-64.282;2022-08-01T05:02:39;24.38;;;14.93;;
59972;SDS011;55298;-36.624;-64.282;2022-08-01T05:05:07;20.05;;;14.38;;
59972;SDS011;55298;-36.624;-64.282;2022-08-01T05:07:36;18.02;;;14.50;;
59972;SDS011;55298;-36.624;-64.282;2022-08-01T05:10:05;19.67;;;14.18;;
59972;SDS011;55298;-36.624;-64.282;2022-08-01T05:12:33;23.25;;;14.05;;
59972;SDS011;55298;-36.624;-64.282;2022-08-01T05:15:01;31.48;;;16.65;;
59972;SDS011;55298;-36.624;-64.282;2022-08-01T05:17:29;17.92;;;12.48;;
59972;SDS011;55298;-36.624;-64.282;2022-08-01T05:19:58;20.00;;;13.98;;
59972;SDS011;55298;-36.624;-64.282;2022-08-01T05:22:28;28.45;;;17.20;;
59972;SDS011;55298;-36.624;-64.282;2022-08-01T05:24:55;37.20;;;19.27;;
59972;SDS011;55298;-36.624;-64.282;2022-08-01T05:27:25;27.27;;;17.17;;
59972;SDS011;55298;-36.624;-64.282;2022-08-01T05:29:53;28.77;;;16.50;;
59972;SDS011;55298;-36.624;-64.282;2022-08-01T05:32:21;32.78;;;16.45;;
59972;SDS011;55298;-36.624;-64.282;2022-08-01T05:34:49;27.27;;;16.60;;
59972;SDS011;55298;-36.624;-64.282;2022-08-01T05:37:21;33.15;;;18.13;;
59972;SDS011;55298;-36.624;-64.282;2022-08-01T05:39:48;33.45;;;16.48;;
59972;SDS011;55298;-36.624;-64.282;2022-08-01T05:42:17;26.80;;;16.08;;
59972;SDS011;55298;-36.624;-64.282;2022-08-01T05:44:45;145.35;;;25.58;;
59972;SDS011;55298;-36.624;-64.282;2022-08-01T05:47:16;53.97;;;17.40;;
59972;SDS011;55298;-36.624;-64.282;2022-08-01T05:49:45;199.27;;;25.17;;
59972;SDS011;55298;-36.624;-64.282;2022-08-01T05:52:14;155.82;;;26.73;;
59972;SDS011;55298;-36.624;-64.282;2022-08-01T05:54:43;172.02;;;27.58;;
59972;SDS011;55298;-36.624;-64.282;2022-08-01T05:57:12;135.00;;;28.77;;
59972;SDS011;55298;-36.624;-64.282;2022-08-01T05:59:40;144.63;;;26.90;;
59972;SDS011;55298;-36.624;-64.282;2022-08-01T06:02:08;114.53;;;25.75;;
59972;SDS011;55298;-36.624;-64.282;2022-08-01T06:04:36;129.43;;;24.55;;
59972;SDS011;55298;-36.624;-64.282;2022-08-01T06:07:05;133.65;;;27.88;;
59972;SDS011;55298;-36.624;-64.282;2022-08-01T06:09:33;235.40;;;35.97;;
59972;SDS011;55298;-36.624;-64.282;2022-08-01T06:12:03;199.73;;;31.13;;
59972;SDS011;55298;-36.624;-64.282;2022-08-01T06:14:32;200.30;;;28.23;;
59972;SDS011;55298;-36.624;-64.282;2022-08-01T06:17:01;168.63;;;26.30;;
59972;SDS011;55298;-36.624;-64.282;2022-08-01T06:19:32;232.20;;;30.90;;
59972;SDS011;55298;-36.624;-64.282;2022-08-01T06:21:59;135.50;;;26.38;;
59972;SDS011;55298;-36.624;-64.282;2022-08-01T06:24:29;90.45;;;23.73;;
59972;SDS011;55298;-36.624;-64.282;2022-08-01T06:26:57;170.75;;;32.40;;
59972;SDS011;55298;-36.624;-64.282;2022-08-01T06:29:26;255.10;;;37.08;;
59972;SDS011;55298;-36.624;-64.282;2022-08-01T06:31:56;51.20;;;23.02;;
59972;SDS011;55298;-36.624;-64.282;2022-08-01T06:34:25;46.15;;;20.77;;
59972;SDS011;55298;-36.624;-64.282;2022-08-01T06:36:53;63.40;;;20.88;;
59972;SDS011;55298;-36.624;-64.282;2022-08-01T06:39:21;49.45;;;19.13;;
59972;SDS011;55298;-36.624;-64.282;2022-08-01T06:41:49;39.03;;;15.77;;
59972;SDS011;55298;-36.624;-64.282;2022-08-01T06:44:18;52.13;;;18.80;;
59972;SDS011;55298;-36.624;-64.282;2022-08-01T06:46:46;36.33;;;16.33;;
59972;SDS011;55298;-36.624;-64.282;2022-08-01T06:49:14;65.57;;;18.80;;
59972;SDS011;55298;-36.624;-64.282;2022-08-01T06:51:42;52.58;;;18.83;;
59972;SDS011;55298;-36.624;-64.282;2022-08-01T06:54:10;27.60;;;18.05;;
59972;SDS011;55298;-36.624;-64.282;2022-08-01T06:56:40;21.67;;;14.05;;
59972;SDS011;55298;-36.624;-64.282;2022-08-01T06:59:10;25.80;;;15.20;;
59972;SDS011;55298;-36.624;-64.282;2022-08-01T07:01:38;19.95;;;13.32;;
59972;SDS011;55298;-36.624;-64.282;2022-08-01T07:04:07;27.52;;;14.45;;
59972;SDS011;55298;-36.624;-64.282;2022-08-01T07:06:34;45.63;;;15.48;;
59972;SDS011;55298;-36.624;-64.282;2022-08-01T07:09:03;33.38;;;16.02;;
59972;SDS011;55298;-36.624;-64.282;2022-08-01T07:11:31;32.00;;;15.75;;
59972;SDS011;55298;-36.624;-64.282;2022-08-01T07:14:00;30.85;;;16.20;;
59972;SDS011;55298;-36.624;-64.282;2022-08-01T07:16:29;18.15;;;14.82;;
59972;SDS011;55298;-36.624;-64.282;2022-08-01T07:18:58;24.45;;;13.80;;
59972;SDS011;55298;-36.624;-64.282;2022-08-01T07:21:27;24.58;;;14.60;;
59972;SDS011;55298;-36.624;-64.282;2022-08-01T07:23:56;28.67;;;13.75;;
59972;SDS011;55298;-36.624;-64.282;2022-08-01T07:26:25;25.58;;;14.15;;
59972;SDS011;55298;-36.624;-64.282;2022-08-01T07:28:54;50.22;;;17.63;;
59972;SDS011;55298;-36.624;-64.282;2022-08-01T07:31:22;37.47;;;16.27;;
59972;SDS011;55298;-36.624;-64.282;2022-08-01T07:33:51;24.40;;;13.75;;
59972;SDS011;55298;-36.624;-64.282;2022-08-01T07:36:20;96.38;;;26.77;;
59972;SDS011;55298;-36.624;-64.282;2022-08-01T07:38:48;102.50;;;21.17;;
59972;SDS011;55298;-36.624;-64.282;2022-08-01T07:41:17;101.30;;;22.40;;
59972;SDS011;55298;-36.624;-64.282;2022-08-01T07:43:46;66.22;;;17.60;;
59972;SDS011;55298;-36.624;-64.282;2022-08-01T07:46:14;67.80;;;17.85;;
59972;SDS011;55298;-36.624;-64.282;2022-08-01T07:48:44;78.50;;;16.23;;
59972;SDS011;55298;-36.624;-64.282;2022-08-01T07:51:12;71.78;;;20.58;;
59972;SDS011;55298;-36.624;-64.282;2022-08-01T07:53:40;41.50;;;18.30;;
59972;SDS011;55298;-36.624;-64.282;2022-08-01T07:56:08;35.80;;;16.02;;
59972;SDS011;55298;-36.624;-64.282;2022-08-01T07:58:37;35.13;;;16.17;;
59972;SDS011;55298;-36.624;-64.282;2022-08-01T08:01:05;43.15;;;16.60;;
59972;SDS011;55298;-36.624;-64.282;2022-08-01T08:03:35;81.47;;;20.35;;
59972;SDS011;55298;-36.624;-64.282;2022-08-01T08:06:02;105.18;;;19.17;;
59972;SDS011;55298;-36.624;-64.282;2022-08-01T08:08:30;130.40;;;23.60;;
59972;SDS011;55298;-36.624;-64.282;2022-08-01T08:11:00;122.00;;;20.45;;
59972;SDS011;55298;-36.624;-64.282;2022-08-01T08:13:29;155.68;;;26.00;;
59972;SDS011;55298;-36.624;-64.282;2022-08-01T08:15:57;121.00;;;20.92;;
59972;SDS011;55298;-36.624;-64.282;2022-08-01T08:18:26;193.68;;;24.73;;
59972;SDS011;55298;-36.624;-64.282;2022-08-01T08:20:55;49.97;;;15.23;;
59972;SDS011;55298;-36.624;-64.282;2022-08-01T08:23:24;133.40;;;24.88;;
59972;SDS011;55298;-36.624;-64.282;2022-08-01T08:26:03;171.82;;;24.13;;
59972;SDS011;55298;-36.624;-64.282;2022-08-01T08:28:31;136.10;;;23.27;;
59972;SDS011;55298;-36.624;-64.282;2022-08-01T08:30:59;175.88;;;22.42;;
59972;SDS011;55298;-36.624;-64.282;2022-08-01T08:33:28;129.40;;;23.10;;
59972;SDS011;55298;-36.624;-64.282;2022-08-01T08:35:58;143.55;;;22.27;;
59972;SDS011;55298;-36.624;-64.282;2022-08-01T08:38:27;143.73;;;19.55;;
59972;SDS011;55298;-36.624;-64.282;2022-08-01T08:40:56;163.90;;;22.05;;
59972;SDS011;55298;-36.624;-64.282;2022-08-01T08:43:25;144.95;;;21.85;;
59972;SDS011;55298;-36.624;-64.282;2022-08-01T08:45:53;171.48;;;22.90;;
59972;SDS011;55298;-36.624;-64.282;2022-08-01T08:48:22;167.90;;;21.15;;
59972;SDS011;55298;-36.624;-64.282;2022-08-01T08:50:51;143.07;;;19.58;;
59972;SDS011;55298;-36.624;-64.282;2022-08-01T08:53:20;68.55;;;15.88;;
59972;SDS011;55298;-36.624;-64.282;2022-08-01T08:55:48;115.40;;;17.08;;
59972;SDS011;55298;-36.624;-64.282;2022-08-01T08:58:17;78.30;;;18.05;;
59972;SDS011;55298;-36.624;-64.282;2022-08-01T09:00:45;168.75;;;23.30;;
59972;SDS011;55298;-36.624;-64.282;2022-08-01T09:03:15;108.95;;;18.65;;
59972;SDS011;55298;-36.624;-64.282;2022-08-01T09:05:43;122.10;;;20.05;;
59972;SDS011;55298;-36.624;-64.282;2022-08-01T09:08:12;180.07;;;23.80;;
59972;SDS011;55298;-36.624;-64.282;2022-08-01T09:10:40;138.25;;;24.40;;
59972;SDS011;55298;-36.624;-64.282;2022-08-01T09:13:11;128.32;;;18.98;;
59972;SDS011;55298;-36.624;-64.282;2022-08-01T09:15:46;79.55;;;17.27;;
59972;SDS011;55298;-36.624;-64.282;2022-08-01T09:18:36;105.80;;;19.83;;
59972;SDS011;55298;-36.624;-64.282;2022-08-01T09:21:14;99.18;;;18.40;;
59972;SDS011;55298;-36.624;-64.282;2022-08-01T09:23:48;72.25;;;17.42;;
59972;SDS011;55298;-36.624;-64.282;2022-08-01T09:26:28;56.65;;;16.77;;
59972;SDS011;55298;-36.624;-64.282;2022-08-01T09:28:58;105.43;;;20.15;;
59972;SDS011;55298;-36.624;-64.282;2022-08-01T09:31:28;92.55;;;20.08;;
59972;SDS011;55298;-36.624;-64.282;2022-08-01T09:34:07;102.00;;;17.67;;
59972;SDS011;55298;-36.624;-64.282;2022-08-01T09:39:24;190.05;;;24.00;;
59972;SDS011;55298;-36.624;-64.282;2022-08-01T09:41:57;171.70;;;25.75;;
59972;SDS011;55298;-36.624;-64.282;2022-08-01T09:47:09;167.18;;;21.52;;
59972;SDS011;55298;-36.624;-64.282;2022-08-01T09:49:39;95.32;;;15.98;;
59972;SDS011;55298;-36.624;-64.282;2022-08-01T09:52:32;84.95;;;16.05;;
59972;SDS011;55298;-36.624;-64.282;2022-08-01T09:54:57;169.98;;;21.75;;
59972;SDS011;55298;-36.624;-64.282;2022-08-01T09:57:29;191.70;;;25.92;;
59972;SDS011;55298;-36.624;-64.282;2022-08-01T09:59:59;159.45;;;22.48;;
59972;SDS011;55298;-36.624;-64.282;2022-08-01T10:02:33;196.80;;;26.80;;
59972;SDS011;55298;-36.624;-64.282;2022-08-01T10:05:04;133.95;;;19.08;;
59972;SDS011;55298;-36.624;-64.282;2022-08-01T10:07:35;118.40;;;21.05;;
59972;SDS011;55298;-36.624;-64.282;2022-08-01T10:10:23;121.43;;;21.05;;
59972;SDS011;55298;-36.624;-64.282;2022-08-01T10:12:52;80.22;;;18.02;;
59972;SDS011;55298;-36.624;-64.282;2022-08-01T10:15:24;89.05;;;18.83;;
59972;SDS011;55298;-36.624;-64.282;2022-08-01T10:18:01;106.88;;;22.33;;
59972;SDS011;55298;-36.624;-64.282;2022-08-01T10:20:31;87.90;;;20.45;;
59972;SDS011;55298;-36.624;-64.282;2022-08-01T10:23:03;65.80;;;17.25;;
59972;SDS011;55298;-36.624;-64.282;2022-08-01T10:25:34;76.70;;;19.95;;
59972;SDS011;55298;-36.624;-64.282;2022-08-01T10:28:14;68.78;;;19.42;;
59972;SDS011;55298;-36.624;-64.282;2022-08-01T10:30:43;78.38;;;19.55;;
59972;SDS011;55298;-36.624;-64.282;2022-08-01T10:33:12;70.57;;;19.13;;
59972;SDS011;55298;-36.624;-64.282;2022-08-01T10:35:41;51.13;;;15.95;;
59972;SDS011;55298;-36.624;-64.282;2022-08-01T10:38:12;52.38;;;14.27;;
59972;SDS011;55298;-36.624;-64.282;2022-08-01T10:40:42;32.50;;;16.23;;
59972;SDS011;55298;-36.624;-64.282;2022-08-01T10:43:11;31.30;;;17.77;;
59972;SDS011;55298;-36.624;-64.282;2022-08-01T10:45:42;51.03;;;21.52;;
59972;SDS011;55298;-36.624;-64.282;2022-08-01T10:48:14;75.68;;;25.30;;
59972;SDS011;55298;-36.624;-64.282;2022-08-01T10:50:57;41.70;;;19.98;;
59972;SDS011;55298;-36.624;-64.282;2022-08-01T10:53:30;66.68;;;22.67;;
59972;SDS011;55298;-36.624;-64.282;2022-08-01T10:55:59;115.30;;;28.50;;
59972;SDS011;55298;-36.624;-64.282;2022-08-01T10:58:34;65.97;;;21.42;;
59972;SDS011;55298;-36.624;-64.282;2022-08-01T11:04:04;72.15;;;26.17;;
59972;SDS011;55298;-36.624;-64.282;2022-08-01T11:12:01;82.70;;;20.95;;
59972;SDS011;55298;-36.624;-64.282;2022-08-01T11:17:38;103.90;;;24.92;;
59972;SDS011;55298;-36.624;-64.282;2022-08-01T11:20:17;76.55;;;18.17;;
59972;SDS011;55298;-36.624;-64.282;2022-08-01T11:28:35;79.25;;;40.45;;
59972;SDS011;55298;-36.624;-64.282;2022-08-01T11:33:54;55.17;;;16.95;;
59972;SDS011;55298;-36.624;-64.282;2022-08-01T11:36:22;52.85;;;17.50;;
59972;SDS011;55298;-36.624;-64.282;2022-08-01T11:39:10;52.50;;;18.15;;
59972;SDS011;55298;-36.624;-64.282;2022-08-01T11:41:40;35.17;;;15.57;;
59972;SDS011;55298;-36.624;-64.282;2022-08-01T11:49:44;36.80;;;17.23;;
59972;SDS011;55298;-36.624;-64.282;2022-08-01T11:52:28;90.72;;;25.42;;
59972;SDS011;55298;-36.624;-64.282;2022-08-01T11:55:06;65.72;;;22.15;;
59972;SDS011;55298;-36.624;-64.282;2022-08-01T11:57:36;29.70;;;15.95;;
59972;SDS011;55298;-36.624;-64.282;2022-08-01T12:00:13;27.60;;;16.85;;
59972;SDS011;55298;-36.624;-64.282;2022-08-01T12:02:45;63.83;;;21.63;;
59972;SDS011;55298;-36.624;-64.282;2022-08-01T12:05:22;33.58;;;18.30;;
59972;SDS011;55298;-36.624;-64.282;2022-08-01T12:07:52;58.95;;;21.23;;
59972;SDS011;55298;-36.624;-64.282;2022-08-01T12:10:23;28.27;;;17.55;;
59972;SDS011;55298;-36.624;-64.282;2022-08-01T12:13:05;36.72;;;18.27;;
59972;SDS011;55298;-36.624;-64.282;2022-08-01T12:15:34;77.05;;;25.10;;
59972;SDS011;55298;-36.624;-64.282;2022-08-01T12:18:06;77.97;;;27.80;;
59972;SDS011;55298;-36.624;-64.282;2022-08-01T12:20:35;106.65;;;30.42;;
59972;SDS011;55298;-36.624;-64.282;2022-08-01T12:23:08;36.87;;;19.67;;
59972;SDS011;55298;-36.624;-64.282;2022-08-01T12:25:38;97.32;;;29.10;;
59972;SDS011;55298;-36.624;-64.282;2022-08-01T12:28:11;60.15;;;27.55;;
59972;SDS011;55298;-36.624;-64.282;2022-08-01T12:30:39;64.25;;;25.90;;
59972;SDS011;55298;-36.624;-64.282;2022-08-01T12:33:09;65.10;;;22.58;;
59972;SDS011;55298;-36.624;-64.282;2022-08-01T12:35:43;60.67;;;25.70;;
59972;SDS011;55298;-36.624;-64.282;2022-08-01T12:38:18;74.10;;;26.92;;
59972;SDS011;55298;-36.624;-64.282;2022-08-01T12:40:50;60.45;;;25.40;;
59972;SDS011;55298;-36.624;-64.282;2022-08-01T12:43:20;63.22;;;25.70;;
59972;SDS011;55298;-36.624;-64.282;2022-08-01T12:45:51;84.72;;;20.20;;
59972;SDS011;55298;-36.624;-64.282;2022-08-01T12:48:22;62.72;;;20.80;;
59972;SDS011;55298;-36.624;-64.282;2022-08-01T12:50:54;39.95;;;25.73;;
59972;SDS011;55298;-36.624;-64.282;2022-08-01T12:53:26;25.77;;;16.35;;
59972;SDS011;55298;-36.624;-64.282;2022-08-01T12:55:55;30.50;;;16.10;;
59972;SDS011;55298;-36.624;-64.282;2022-08-01T12:58:23;68.85;;;17.85;;
59972;SDS011;55298;-36.624;-64.282;2022-08-01T13:01:04;42.70;;;18.27;;
59972;SDS011;55298;-36.624;-64.282;2022-08-01T13:03:35;33.38;;;17.88;;
59972;SDS011;55298;-36.624;-64.282;2022-08-01T13:06:19;45.50;;;16.45;;
59972;SDS011;55298;-36.624;-64.282;2022-08-01T13:08:49;28.42;;;13.35;;
59972;SDS011;55298;-36.624;-64.282;2022-08-01T13:11:18;22.27;;;14.88;;
59972;SDS011;55298;-36.624;-64.282;2022-08-01T13:13:49;36.38;;;18.73;;
59972;SDS011;55298;-36.624;-64.282;2022-08-01T13:16:19;25.58;;;14.32;;
59972;SDS011;55298;-36.624;-64.282;2022-08-01T13:18:52;22.60;;;14.98;;
59972;SDS011;55298;-36.624;-64.282;2022-08-01T13:21:23;17.10;;;13.02;;
59972;SDS011;55298;-36.624;-64.282;2022-08-01T13:24:02;21.30;;;15.80;;
59972;SDS011;55298;-36.624;-64.282;2022-08-01T13:29:29;30.77;;;14.93;;
59972;SDS011;55298;-36.624;-64.282;2022-08-01T13:32:13;33.40;;;15.52;;
59972;SDS011;55298;-36.624;-64.282;2022-08-01T13:34:46;27.27;;;14.65;;
59972;SDS011;55298;-36.624;-64.282;2022-08-01T13:37:15;98.72;;;17.45;;
59972;SDS011;55298;-36.624;-64.282;2022-08-01T13:39:44;64.72;;;18.30;;
59972;SDS011;55298;-36.624;-64.282;2022-08-01T13:42:14;25.60;;;16.17;;
59972;SDS011;55298;-36.624;-64.282;2022-08-01T13:44:44;23.73;;;14.65;;
59972;SDS011;55298;-36.624;-64.282;2022-08-01T13:47:12;40.90;;;17.02;;
59972;SDS011;55298;-36.624;-64.282;2022-08-01T13:49:42;22.58;;;15.50;;
59972;SDS011;55298;-36.624;-64.282;2022-08-01T13:52:10;24.50;;;14.77;;
59972;SDS011;55298;-36.624;-64.282;2022-08-01T13:54:39;54.83;;;15.27;;
59972;SDS011;55298;-36.624;-64.282;2022-08-01T13:57:08;84.70;;;17.35;;
59972;SDS011;55298;-36.624;-64.282;2022-08-01T13:59:37;31.48;;;13.30;;
59972;SDS011;55298;-36.624;-64.282;2022-08-01T14:02:05;46.95;;;13.88;;
59972;SDS011;55298;-36.624;-64.282;2022-08-01T14:04:34;40.28;;;14.13;;
59972;SDS011;55298;-36.624;-64.282;2022-08-01T14:07:03;100.95;;;14.68;;
59972;SDS011;55298;-36.624;-64.282;2022-08-01T14:09:32;71.22;;;15.80;;
59972;SDS011;55298;-36.624;-64.282;2022-08-01T14:12:02;55.33;;;11.68;;
59972;SDS011;55298;-36.624;-64.282;2022-08-01T14:14:31;21.75;;;12.43;;
59972;SDS011;55298;-36.624;-64.282;2022-08-01T14:16:59;16.00;;;11.48;;
59972;SDS011;55298;-36.624;-64.282;2022-08-01T14:19:31;13.20;;;10.82;;
59972;SDS011;55298;-36.624;-64.282;2022-08-01T14:22:00;18.60;;;11.63;;
59972;SDS011;55298;-36.624;-64.282;2022-08-01T14:24:30;22.30;;;15.68;;
59972;SDS011;55298;-36.624;-64.282;2022-08-01T14:26:59;19.48;;;16.58;;
59972;SDS011;55298;-36.624;-64.282;2022-08-01T14:29:28;25.58;;;12.00;;
59972;SDS011;55298;-36.624;-64.282;2022-08-01T14:31:55;14.07;;;12.02;;
59972;SDS011;55298;-36.624;-64.282;2022-08-01T14:34:26;11.80;;;10.43;;
59972;SDS011;55298;-36.624;-64.282;2022-08-01T14:36:54;15.93;;;13.48;;
59972;SDS011;55298;-36.624;-64.282;2022-08-01T14:39:24;15.10;;;10.80;;
59972;SDS011;55298;-36.624;-64.282;2022-08-01T14:41:53;10.20;;;9.00;;
59972;SDS011;55298;-36.624;-64.282;2022-08-01T14:44:22;17.35;;;10.85;;